sensor_id;sensor_type;location;lat;lon;timestamp;temperature;humidity
5164;DHT22;2601;50.224;10.126;2023-04-24T00:00:54;16.50;99.90
5164;DHT22;2601;50.224;10.126;2023-04-24T00:03:24;16.50;99.90
5164;DHT22;2601;50.224;10.126;2023-04-24T00:05:53;16.50;99.90
5164;DHT22;2601;50.224;10.126;2023-04-24T00:08:19;16.50;99.90
5164;DHT22;2601;50.224;10.126;2023-04-24T00:10:44;16.50;99.90
5164;DHT22;2601;50.224;10.126;2023-04-24T00:13:10;16.50;99.90
5164;DHT22;2601;50.224;10.126;2023-04-24T00:15:36;16.50;99.90
5164;DHT22;2601;50.224;10.126;2023-04-24T00:18:01;16.50;99.90
5164;DHT22;2601;50.224;10.126;2023-04-24T00:20:28;16.50;99.90
5164;DHT22;2601;50.224;10.126;2023-04-24T00:22:55;16.50;99.90
5164;DHT22;2601;50.224;10.126;2023-04-24T00:25:20;16.50;99.90
5164;DHT22;2601;50.224;10.126;2023-04-24T00:27:46;16.50;99.90
5164;DHT22;2601;50.224;10.126;2023-04-24T00:30:11;16.50;99.90
5164;DHT22;2601;50.224;10.126;2023-04-24T00:32:37;16.50;99.90
5164;DHT22;2601;50.224;10.126;2023-04-24T00:35:03;16.50;99.90
5164;DHT22;2601;50.224;10.126;2023-04-24T00:37:29;16.50;99.90
5164;DHT22;2601;50.224;10.126;2023-04-24T00:39:54;16.50;99.90
5164;DHT22;2601;50.224;10.126;2023-04-24T00:42:20;16.50;99.90
5164;DHT22;2601;50.224;10.126;2023-04-24T00:44:46;16.50;99.90
5164;DHT22;2601;50.224;10.126;2023-04-24T00:47:12;16.50;99.90
5164;DHT22;2601;50.224;10.126;2023-04-24T00:49:38;16.50;99.90
5164;DHT22;2601;50.224;10.126;2023-04-24T00:52:04;16.50;99.90
5164;DHT22;2601;50.224;10.126;2023-04-24T00:54:34;16.50;99.90
5164;DHT22;2601;50.224;10.126;2023-04-24T00:57:00;16.50;99.90
5164;DHT22;2601;50.224;10.126;2023-04-24T00:59:26;16.50;99.90
5164;DHT22;2601;50.224;10.126;2023-04-24T01:01:52;16.50;99.90
5164;DHT22;2601;50.224;10.126;2023-04-24T01:04:18;16.50;99.90
5164;DHT22;2601;50.224;10.126;2023-04-24T01:06:44;16.40;99.90
5164;DHT22;2601;50.224;10.126;2023-04-24T01:09:12;16.50;99.90
5164;DHT22;2601;50.224;10.126;2023-04-24T01:11:37;16.50;99.90
5164;DHT22;2601;50.224;10.126;2023-04-24T01:14:03;16.50;99.90
5164;DHT22;2601;50.224;10.126;2023-04-24T01:16:29;16.50;99.90
5164;DHT22;2601;50.224;10.126;2023-04-24T01:18:55;16.50;99.90
5164;DHT22;2601;50.224;10.126;2023-04-24T01:21:21;16.50;99.90
5164;DHT22;2601;50.224;10.126;2023-04-24T01:23:48;16.50;99.90
5164;DHT22;2601;50.224;10.126;2023-04-24T01:26:17;16.50;99.90
5164;DHT22;2601;50.224;10.126;2023-04-24T01:28:45;16.50;99.90
5164;DHT22;2601;50.224;10.126;2023-04-24T01:31:11;16.50;99.90
5164;DHT22;2601;50.224;10.126;2023-04-24T01:33:37;16.50;99.90
5164;DHT22;2601;50.224;10.126;2023-04-24T01:36:03;16.50;99.90
5164;DHT22;2601;50.224;10.126;2023-04-24T01:38:28;16.50;99.90
5164;DHT22;2601;50.224;10.126;2023-04-24T01:40:54;16.50;99.90
5164;DHT22;2601;50.224;10.126;2023-04-24T01:43:20;16.50;99.90
5164;DHT22;2601;50.224;10.126;2023-04-24T01:45:46;16.50;99.90
5164;DHT22;2601;50.224;10.126;2023-04-24T01:48:12;16.50;99.90
5164;DHT22;2601;50.224;10.126;2023-04-24T01:50:38;16.50;99.90
5164;DHT22;2601;50.224;10.126;2023-04-24T01:53:04;16.50;99.90
5164;DHT22;2601;50.224;10.126;2023-04-24T01:55:30;16.50;99.90
5164;DHT22;2601;50.224;10.126;2023-04-24T01:57:56;16.50;99.90
5164;DHT22;2601;50.224;10.126;2023-04-24T02:00:23;16.40;99.90
5164;DHT22;2601;50.224;10.126;2023-04-24T02:02:50;16.50;99.90
5164;DHT22;2601;50.224;10.126;2023-04-24T02:05:15;16.50;99.90
5164;DHT22;2601;50.224;10.126;2023-04-24T02:07:41;16.50;99.90
5164;DHT22;2601;50.224;10.126;2023-04-24T02:10:07;16.50;99.90
5164;DHT22;2601;50.224;10.126;2023-04-24T02:12:33;16.50;99.90
5164;DHT22;2601;50.224;10.126;2023-04-24T02:14:58;16.50;99.90
5164;DHT22;2601;50.224;10.126;2023-04-24T02:17:24;16.50;99.90
5164;DHT22;2601;50.224;10.126;2023-04-24T02:19:50;16.50;99.90
5164;DHT22;2601;50.224;10.126;2023-04-24T02:22:15;16.50;99.90
5164;DHT22;2601;50.224;10.126;2023-04-24T02:24:41;16.50;99.90
5164;DHT22;2601;50.224;10.126;2023-04-24T02:27:07;16.40;99.90
5164;DHT22;2601;50.224;10.126;2023-04-24T02:29:32;16.40;99.90
5164;DHT22;2601;50.224;10.126;2023-04-24T02:31:58;16.50;99.90
5164;DHT22;2601;50.224;10.126;2023-04-24T02:34:24;16.40;99.90
5164;DHT22;2601;50.224;10.126;2023-04-24T02:36:50;16.50;99.90
5164;DHT22;2601;50.224;10.126;2023-04-24T02:39:15;16.50;99.90
5164;DHT22;2601;50.224;10.126;2023-04-24T02:41:44;16.50;99.90
5164;DHT22;2601;50.224;10.126;2023-04-24T02:44:10;16.50;99.90
5164;DHT22;2601;50.224;10.126;2023-04-24T02:46:35;16.40;99.90
5164;DHT22;2601;50.224;10.126;2023-04-24T02:49:01;16.50;99.90
5164;DHT22;2601;50.224;10.126;2023-04-24T02:51:28;16.40;99.90
5164;DHT22;2601;50.224;10.126;2023-04-24T02:53:53;16.40;99.90
5164;DHT22;2601;50.224;10.126;2023-04-24T02:56:19;16.50;99.90
5164;DHT22;2601;50.224;10.126;2023-04-24T02:58:45;16.50;99.90
5164;DHT22;2601;50.224;10.126;2023-04-24T03:01:12;16.40;99.90
5164;DHT22;2601;50.224;10.126;2023-04-24T03:03:41;16.40;99.90
5164;DHT22;2601;50.224;10.126;2023-04-24T03:06:07;16.50;99.90
5164;DHT22;2601;50.224;10.126;2023-04-24T03:08:34;16.40;99.90
5164;DHT22;2601;50.224;10.126;2023-04-24T03:11:00;16.40;99.90
5164;DHT22;2601;50.224;10.126;2023-04-24T03:13:26;16.40;99.90
5164;DHT22;2601;50.224;10.126;2023-04-24T03:15:51;16.40;99.90
5164;DHT22;2601;50.224;10.126;2023-04-24T03:18:17;16.40;99.90
5164;DHT22;2601;50.224;10.126;2023-04-24T03:20:44;16.40;99.90
5164;DHT22;2601;50.224;10.126;2023-04-24T03:23:12;16.40;99.90
5164;DHT22;2601;50.224;10.126;2023-04-24T03:25:37;16.40;99.90
5164;DHT22;2601;50.224;10.126;2023-04-24T03:28:03;16.40;99.90
5164;DHT22;2601;50.224;10.126;2023-04-24T03:30:29;16.40;99.90
5164;DHT22;2601;50.224;10.126;2023-04-24T03:32:55;16.40;99.90
5164;DHT22;2601;50.224;10.126;2023-04-24T03:35:21;16.40;99.90
5164;DHT22;2601;50.224;10.126;2023-04-24T03:37:47;16.40;99.90
5164;DHT22;2601;50.224;10.126;2023-04-24T03:40:13;16.40;99.90
5164;DHT22;2601;50.224;10.126;2023-04-24T03:42:38;16.40;99.90
5164;DHT22;2601;50.224;10.126;2023-04-24T03:45:04;16.40;99.90
5164;DHT22;2601;50.224;10.126;2023-04-24T03:47:30;16.40;99.90
5164;DHT22;2601;50.224;10.126;2023-04-24T03:49:56;16.40;99.90
5164;DHT22;2601;50.224;10.126;2023-04-24T03:52:21;16.40;99.90
5164;DHT22;2601;50.224;10.126;2023-04-24T03:54:47;16.40;99.90
5164;DHT22;2601;50.224;10.126;2023-04-24T03:57:12;16.40;99.90
5164;DHT22;2601;50.224;10.126;2023-04-24T03:59:38;16.40;99.90
5164;DHT22;2601;50.224;10.126;2023-04-24T04:02:04;16.40;99.90
5164;DHT22;2601;50.224;10.126;2023-04-24T04:04:29;16.40;99.90
5164;DHT22;2601;50.224;10.126;2023-04-24T04:06:55;16.40;99.90
5164;DHT22;2601;50.224;10.126;2023-04-24T04:09:21;16.40;99.90
5164;DHT22;2601;50.224;10.126;2023-04-24T04:11:46;16.40;99.90
5164;DHT22;2601;50.224;10.126;2023-04-24T04:14:12;16.40;99.90
5164;DHT22;2601;50.224;10.126;2023-04-24T04:16:37;16.40;99.90
5164;DHT22;2601;50.224;10.126;2023-04-24T04:19:04;16.40;99.90
5164;DHT22;2601;50.224;10.126;2023-04-24T04:21:30;16.40;99.90
5164;DHT22;2601;50.224;10.126;2023-04-24T04:23:57;16.40;99.90
5164;DHT22;2601;50.224;10.126;2023-04-24T04:26:22;16.40;99.90
5164;DHT22;2601;50.224;10.126;2023-04-24T04:28:51;16.40;99.90
5164;DHT22;2601;50.224;10.126;2023-04-24T04:31:17;16.40;99.90
5164;DHT22;2601;50.224;10.126;2023-04-24T04:33:42;16.40;99.90
5164;DHT22;2601;50.224;10.126;2023-04-24T04:36:11;16.40;99.90
5164;DHT22;2601;50.224;10.126;2023-04-24T04:38:37;16.40;99.90
5164;DHT22;2601;50.224;10.126;2023-04-24T04:41:03;16.40;99.90
5164;DHT22;2601;50.224;10.126;2023-04-24T04:43:29;16.40;99.90
5164;DHT22;2601;50.224;10.126;2023-04-24T04:45:57;16.40;99.90
5164;DHT22;2601;50.224;10.126;2023-04-24T04:48:24;16.40;99.90
5164;DHT22;2601;50.224;10.126;2023-04-24T04:50:50;16.40;99.90
5164;DHT22;2601;50.224;10.126;2023-04-24T04:53:16;16.40;99.90
5164;DHT22;2601;50.224;10.126;2023-04-24T04:55:42;16.40;99.90
5164;DHT22;2601;50.224;10.126;2023-04-24T04:58:07;16.40;99.90
5164;DHT22;2601;50.224;10.126;2023-04-24T05:00:33;16.40;99.90
5164;DHT22;2601;50.224;10.126;2023-04-24T05:03:01;16.50;99.90
5164;DHT22;2601;50.224;10.126;2023-04-24T05:05:27;16.40;99.90
5164;DHT22;2601;50.224;10.126;2023-04-24T05:07:53;16.40;99.90
5164;DHT22;2601;50.224;10.126;2023-04-24T05:10:18;16.40;99.90
5164;DHT22;2601;50.224;10.126;2023-04-24T05:12:44;16.40;99.90
5164;DHT22;2601;50.224;10.126;2023-04-24T05:15:10;16.40;99.90
5164;DHT22;2601;50.224;10.126;2023-04-24T05:17:36;16.40;99.90
5164;DHT22;2601;50.224;10.126;2023-04-24T05:20:02;16.40;99.90
5164;DHT22;2601;50.224;10.126;2023-04-24T05:22:31;16.40;99.90
5164;DHT22;2601;50.224;10.126;2023-04-24T05:24:56;16.40;99.90
5164;DHT22;2601;50.224;10.126;2023-04-24T05:27:24;16.40;99.90
5164;DHT22;2601;50.224;10.126;2023-04-24T05:29:54;16.40;99.90
5164;DHT22;2601;50.224;10.126;2023-04-24T05:32:21;16.40;99.90
5164;DHT22;2601;50.224;10.126;2023-04-24T05:34:47;16.40;99.90
5164;DHT22;2601;50.224;10.126;2023-04-24T05:37:12;16.40;99.90
5164;DHT22;2601;50.224;10.126;2023-04-24T05:39:38;16.50;99.90
5164;DHT22;2601;50.224;10.126;2023-04-24T05:42:06;16.50;99.90
5164;DHT22;2601;50.224;10.126;2023-04-24T05:44:35;16.50;99.90
5164;DHT22;2601;50.224;10.126;2023-04-24T05:47:05;16.40;99.90
5164;DHT22;2601;50.224;10.126;2023-04-24T05:49:36;16.50;99.90
5164;DHT22;2601;50.224;10.126;2023-04-24T05:52:06;16.40;99.90
5164;DHT22;2601;50.224;10.126;2023-04-24T05:54:36;16.40;99.90
5164;DHT22;2601;50.224;10.126;2023-04-24T05:57:03;16.40;99.90
5164;DHT22;2601;50.224;10.126;2023-04-24T05:59:33;16.40;99.90
5164;DHT22;2601;50.224;10.126;2023-04-24T06:01:59;16.40;99.90
5164;DHT22;2601;50.224;10.126;2023-04-24T06:04:25;16.40;99.90
5164;DHT22;2601;50.224;10.126;2023-04-24T06:06:50;16.40;99.90
5164;DHT22;2601;50.224;10.126;2023-04-24T06:09:24;16.40;99.90
5164;DHT22;2601;50.224;10.126;2023-04-24T06:11:50;16.40;99.90
5164;DHT22;2601;50.224;10.126;2023-04-24T06:14:18;16.40;99.90
5164;DHT22;2601;50.224;10.126;2023-04-24T06:16:44;16.40;99.90
5164;DHT22;2601;50.224;10.126;2023-04-24T06:19:10;16.40;99.90
5164;DHT22;2601;50.224;10.126;2023-04-24T06:21:35;16.40;99.90
5164;DHT22;2601;50.224;10.126;2023-04-24T06:24:01;16.40;99.90
5164;DHT22;2601;50.224;10.126;2023-04-24T06:26:27;16.40;99.90
5164;DHT22;2601;50.224;10.126;2023-04-24T06:28:53;16.40;99.90
5164;DHT22;2601;50.224;10.126;2023-04-24T06:31:21;16.40;99.90
5164;DHT22;2601;50.224;10.126;2023-04-24T06:33:48;16.40;99.90
5164;DHT22;2601;50.224;10.126;2023-04-24T06:36:14;16.40;99.90
5164;DHT22;2601;50.224;10.126;2023-04-24T06:38:41;16.40;99.90
5164;DHT22;2601;50.224;10.126;2023-04-24T06:41:06;16.40;99.90
5164;DHT22;2601;50.224;10.126;2023-04-24T06:43:32;16.40;99.90
5164;DHT22;2601;50.224;10.126;2023-04-24T06:45:59;16.40;99.90
5164;DHT22;2601;50.224;10.126;2023-04-24T06:48:25;16.40;99.90
5164;DHT22;2601;50.224;10.126;2023-04-24T06:50:51;16.40;99.90
5164;DHT22;2601;50.224;10.126;2023-04-24T06:53:16;16.40;99.90
5164;DHT22;2601;50.224;10.126;2023-04-24T06:55:42;16.40;99.90
5164;DHT22;2601;50.224;10.126;2023-04-24T06:58:10;16.40;99.90
5164;DHT22;2601;50.224;10.126;2023-04-24T07:00:36;16.40;99.90
5164;DHT22;2601;50.224;10.126;2023-04-24T07:03:01;16.40;99.90
5164;DHT22;2601;50.224;10.126;2023-04-24T07:05:27;16.40;99.90
5164;DHT22;2601;50.224;10.126;2023-04-24T07:07:53;16.40;99.90
5164;DHT22;2601;50.224;10.126;2023-04-24T07:10:19;16.40;99.90
5164;DHT22;2601;50.224;10.126;2023-04-24T07:12:45;16.40;99.90
5164;DHT22;2601;50.224;10.126;2023-04-24T07:15:12;16.40;99.90
5164;DHT22;2601;50.224;10.126;2023-04-24T07:17:37;16.40;99.90
5164;DHT22;2601;50.224;10.126;2023-04-24T07:20:04;16.40;99.90
5164;DHT22;2601;50.224;10.126;2023-04-24T07:22:30;16.40;99.90
5164;DHT22;2601;50.224;10.126;2023-04-24T07:24:56;16.40;99.90
5164;DHT22;2601;50.224;10.126;2023-04-24T07:27:22;16.40;99.90
5164;DHT22;2601;50.224;10.126;2023-04-24T07:29:47;16.40;99.90
5164;DHT22;2601;50.224;10.126;2023-04-24T07:32:13;16.40;99.90
5164;DHT22;2601;50.224;10.126;2023-04-24T07:34:39;16.40;99.90
5164;DHT22;2601;50.224;10.126;2023-04-24T07:37:04;16.40;99.80
5164;DHT22;2601;50.224;10.126;2023-04-24T07:39:30;16.40;99.90
5164;DHT22;2601;50.224;10.126;2023-04-24T07:41:56;16.40;99.90
5164;DHT22;2601;50.224;10.126;2023-04-24T07:44:23;16.40;99.50
5164;DHT22;2601;50.224;10.126;2023-04-24T07:46:49;16.40;99.40
5164;DHT22;2601;50.224;10.126;2023-04-24T07:49:15;16.40;99.40
5164;DHT22;2601;50.224;10.126;2023-04-24T07:51:40;16.30;99.40
5164;DHT22;2601;50.224;10.126;2023-04-24T07:54:06;16.40;99.20
5164;DHT22;2601;50.224;10.126;2023-04-24T07:56:33;16.30;99.00
5164;DHT22;2601;50.224;10.126;2023-04-24T07:58:59;16.30;98.80
5164;DHT22;2601;50.224;10.126;2023-04-24T08:01:25;16.30;98.70
5164;DHT22;2601;50.224;10.126;2023-04-24T08:03:51;16.30;98.60
5164;DHT22;2601;50.224;10.126;2023-04-24T08:06:16;16.30;98.50
5164;DHT22;2601;50.224;10.126;2023-04-24T08:08:42;16.30;98.50
5164;DHT22;2601;50.224;10.126;2023-04-24T08:11:08;16.30;98.50
5164;DHT22;2601;50.224;10.126;2023-04-24T08:13:34;16.30;98.30
5164;DHT22;2601;50.224;10.126;2023-04-24T08:15:59;16.30;98.20
5164;DHT22;2601;50.224;10.126;2023-04-24T08:18:25;16.30;98.10
5164;DHT22;2601;50.224;10.126;2023-04-24T08:20:51;16.30;97.80
5164;DHT22;2601;50.224;10.126;2023-04-24T08:23:17;16.30;97.80
5164;DHT22;2601;50.224;10.126;2023-04-24T08:25:42;16.30;97.80
5164;DHT22;2601;50.224;10.126;2023-04-24T08:28:09;16.30;97.90
5164;DHT22;2601;50.224;10.126;2023-04-24T08:30:35;16.30;98.00
5164;DHT22;2601;50.224;10.126;2023-04-24T08:33:01;16.30;98.00
5164;DHT22;2601;50.224;10.126;2023-04-24T08:35:26;16.30;97.90
5164;DHT22;2601;50.224;10.126;2023-04-24T08:37:52;16.30;97.90
5164;DHT22;2601;50.224;10.126;2023-04-24T08:40:22;16.30;97.80
5164;DHT22;2601;50.224;10.126;2023-04-24T08:42:48;16.30;97.70
5164;DHT22;2601;50.224;10.126;2023-04-24T08:45:15;16.30;97.60
5164;DHT22;2601;50.224;10.126;2023-04-24T08:47:41;16.30;97.60
5164;DHT22;2601;50.224;10.126;2023-04-24T08:50:08;16.30;97.50
5164;DHT22;2601;50.224;10.126;2023-04-24T08:52:35;16.30;97.40
5164;DHT22;2601;50.224;10.126;2023-04-24T08:55:01;16.30;97.30
5164;DHT22;2601;50.224;10.126;2023-04-24T08:57:28;16.30;97.40
5164;DHT22;2601;50.224;10.126;2023-04-24T08:59:54;16.30;97.10
5164;DHT22;2601;50.224;10.126;2023-04-24T09:02:21;16.30;97.00
5164;DHT22;2601;50.224;10.126;2023-04-24T09:04:47;16.30;96.90
5164;DHT22;2601;50.224;10.126;2023-04-24T09:07:14;16.30;96.80
5164;DHT22;2601;50.224;10.126;2023-04-24T09:09:43;16.30;96.70
5164;DHT22;2601;50.224;10.126;2023-04-24T09:12:09;16.30;96.60
5164;DHT22;2601;50.224;10.126;2023-04-24T09:14:36;16.30;96.60
5164;DHT22;2601;50.224;10.126;2023-04-24T09:17:05;16.30;96.50
5164;DHT22;2601;50.224;10.126;2023-04-24T09:19:31;16.30;96.50
5164;DHT22;2601;50.224;10.126;2023-04-24T09:21:57;16.30;96.50
5164;DHT22;2601;50.224;10.126;2023-04-24T09:24:22;16.30;96.50
5164;DHT22;2601;50.224;10.126;2023-04-24T09:26:49;16.30;96.40
5164;DHT22;2601;50.224;10.126;2023-04-24T09:29:20;16.30;96.40
5164;DHT22;2601;50.224;10.126;2023-04-24T09:31:46;16.30;96.40
5164;DHT22;2601;50.224;10.126;2023-04-24T09:34:12;16.30;96.40
5164;DHT22;2601;50.224;10.126;2023-04-24T09:36:42;16.30;96.30
5164;DHT22;2601;50.224;10.126;2023-04-24T09:39:12;16.30;96.30
5164;DHT22;2601;50.224;10.126;2023-04-24T09:41:51;16.30;96.30
5164;DHT22;2601;50.224;10.126;2023-04-24T09:44:21;16.30;96.40
5164;DHT22;2601;50.224;10.126;2023-04-24T09:46:59;16.30;96.30
5164;DHT22;2601;50.224;10.126;2023-04-24T09:49:29;16.30;96.30
5164;DHT22;2601;50.224;10.126;2023-04-24T09:52:06;16.30;96.20
5164;DHT22;2601;50.224;10.126;2023-04-24T09:54:32;16.30;96.10
5164;DHT22;2601;50.224;10.126;2023-04-24T09:56:58;16.30;96.10
5164;DHT22;2601;50.224;10.126;2023-04-24T09:59:25;16.30;96.10
5164;DHT22;2601;50.224;10.126;2023-04-24T10:01:51;16.30;95.90
5164;DHT22;2601;50.224;10.126;2023-04-24T10:04:25;16.30;95.90
5164;DHT22;2601;50.224;10.126;2023-04-24T10:06:53;16.30;95.90
5164;DHT22;2601;50.224;10.126;2023-04-24T10:09:21;16.30;96.00
5164;DHT22;2601;50.224;10.126;2023-04-24T10:11:50;16.30;96.00
5164;DHT22;2601;50.224;10.126;2023-04-24T10:14:25;16.30;95.90
5164;DHT22;2601;50.224;10.126;2023-04-24T10:16:55;16.30;95.70
5164;DHT22;2601;50.224;10.126;2023-04-24T10:19:25;16.30;95.60
5164;DHT22;2601;50.224;10.126;2023-04-24T10:21:51;16.30;95.70
5164;DHT22;2601;50.224;10.126;2023-04-24T10:24:18;16.30;95.70
5164;DHT22;2601;50.224;10.126;2023-04-24T10:26:46;16.30;95.60
5164;DHT22;2601;50.224;10.126;2023-04-24T10:29:15;16.20;95.60
5164;DHT22;2601;50.224;10.126;2023-04-24T10:31:41;16.30;95.60
5164;DHT22;2601;50.224;10.126;2023-04-24T10:34:08;16.20;95.70
5164;DHT22;2601;50.224;10.126;2023-04-24T10:36:36;16.20;95.80
5164;DHT22;2601;50.224;10.126;2023-04-24T10:39:07;16.30;95.80
5164;DHT22;2601;50.224;10.126;2023-04-24T10:41:33;16.30;95.80
5164;DHT22;2601;50.224;10.126;2023-04-24T10:44:07;16.20;95.60
5164;DHT22;2601;50.224;10.126;2023-04-24T10:46:33;16.30;95.60
5164;DHT22;2601;50.224;10.126;2023-04-24T10:48:58;16.30;95.90
5164;DHT22;2601;50.224;10.126;2023-04-24T10:51:42;16.20;95.50
5164;DHT22;2601;50.224;10.126;2023-04-24T10:54:29;16.20;95.50
5164;DHT22;2601;50.224;10.126;2023-04-24T10:59:43;16.20;95.60
5164;DHT22;2601;50.224;10.126;2023-04-24T11:02:09;16.20;95.60
5164;DHT22;2601;50.224;10.126;2023-04-24T11:04:35;16.20;95.70
5164;DHT22;2601;50.224;10.126;2023-04-24T11:07:04;16.20;95.70
5164;DHT22;2601;50.224;10.126;2023-04-24T11:09:31;16.20;95.70
5164;DHT22;2601;50.224;10.126;2023-04-24T11:12:05;16.20;95.60
5164;DHT22;2601;50.224;10.126;2023-04-24T11:17:34;16.20;95.40
5164;DHT22;2601;50.224;10.126;2023-04-24T11:20:07;16.20;95.40
5164;DHT22;2601;50.224;10.126;2023-04-24T11:22:36;16.20;95.20
5164;DHT22;2601;50.224;10.126;2023-04-24T11:25:03;16.20;95.20
5164;DHT22;2601;50.224;10.126;2023-04-24T11:27:31;16.20;95.30
5164;DHT22;2601;50.224;10.126;2023-04-24T11:35:06;16.20;95.30
5164;DHT22;2601;50.224;10.126;2023-04-24T11:37:40;16.20;95.30
5164;DHT22;2601;50.224;10.126;2023-04-24T11:40:08;16.20;95.20
5164;DHT22;2601;50.224;10.126;2023-04-24T11:42:44;16.20;95.00
5164;DHT22;2601;50.224;10.126;2023-04-24T11:45:23;16.20;95.10
5164;DHT22;2601;50.224;10.126;2023-04-24T11:47:48;16.20;95.20
5164;DHT22;2601;50.224;10.126;2023-04-24T11:50:16;16.20;95.20
5164;DHT22;2601;50.224;10.126;2023-04-24T11:52:43;16.20;95.00
5164;DHT22;2601;50.224;10.126;2023-04-24T11:57:48;16.20;95.00
5164;DHT22;2601;50.224;10.126;2023-04-24T12:00:21;16.20;95.00
5164;DHT22;2601;50.224;10.126;2023-04-24T12:02:48;16.20;95.00
5164;DHT22;2601;50.224;10.126;2023-04-24T12:05:26;16.20;95.00
5164;DHT22;2601;50.224;10.126;2023-04-24T12:07:53;16.20;94.90
5164;DHT22;2601;50.224;10.126;2023-04-24T12:10:26;16.20;94.90
5164;DHT22;2601;50.224;10.126;2023-04-24T12:12:53;16.20;94.90
5164;DHT22;2601;50.224;10.126;2023-04-24T12:15:20;16.20;95.00
5164;DHT22;2601;50.224;10.126;2023-04-24T12:17:46;16.20;95.00
5164;DHT22;2601;50.224;10.126;2023-04-24T12:20:12;16.20;95.10
5164;DHT22;2601;50.224;10.126;2023-04-24T12:22:54;16.20;95.20
5164;DHT22;2601;50.224;10.126;2023-04-24T12:25:21;16.20;95.00
5164;DHT22;2601;50.224;10.126;2023-04-24T12:27:53;16.20;95.00
5164;DHT22;2601;50.224;10.126;2023-04-24T12:30:19;16.20;95.30
5164;DHT22;2601;50.224;10.126;2023-04-24T12:32:49;16.20;95.20
5164;DHT22;2601;50.224;10.126;2023-04-24T12:35:23;16.20;95.20
5164;DHT22;2601;50.224;10.126;2023-04-24T12:37:49;16.20;95.40
5164;DHT22;2601;50.224;10.126;2023-04-24T12:40:16;16.20;95.40
5164;DHT22;2601;50.224;10.126;2023-04-24T12:42:50;16.20;95.30
5164;DHT22;2601;50.224;10.126;2023-04-24T12:45:17;16.20;95.40
5164;DHT22;2601;50.224;10.126;2023-04-24T12:47:43;16.20;95.50
5164;DHT22;2601;50.224;10.126;2023-04-24T12:50:12;16.20;95.40
5164;DHT22;2601;50.224;10.126;2023-04-24T12:52:38;16.20;95.40
5164;DHT22;2601;50.224;10.126;2023-04-24T12:55:05;16.20;95.40
5164;DHT22;2601;50.224;10.126;2023-04-24T12:57:34;16.20;95.40
5164;DHT22;2601;50.224;10.126;2023-04-24T13:00:00;16.20;95.30
5164;DHT22;2601;50.224;10.126;2023-04-24T13:02:28;16.20;95.30
5164;DHT22;2601;50.224;10.126;2023-04-24T13:04:55;16.20;95.40
5164;DHT22;2601;50.224;10.126;2023-04-24T13:07:21;16.20;95.60
5164;DHT22;2601;50.224;10.126;2023-04-24T13:09:48;16.20;95.50
5164;DHT22;2601;50.224;10.126;2023-04-24T13:12:14;16.20;95.40
5164;DHT22;2601;50.224;10.126;2023-04-24T13:14:40;16.20;95.20
5164;DHT22;2601;50.224;10.126;2023-04-24T13:17:05;16.20;95.20
5164;DHT22;2601;50.224;10.126;2023-04-24T13:19:36;16.20;95.10
5164;DHT22;2601;50.224;10.126;2023-04-24T13:22:03;16.20;95.00
5164;DHT22;2601;50.224;10.126;2023-04-24T13:24:30;16.20;95.10
5164;DHT22;2601;50.224;10.126;2023-04-24T13:26:56;16.20;95.20
5164;DHT22;2601;50.224;10.126;2023-04-24T13:29:22;16.20;95.20
5164;DHT22;2601;50.224;10.126;2023-04-24T13:31:50;16.20;95.30
5164;DHT22;2601;50.224;10.126;2023-04-24T13:34:19;16.20;95.30
5164;DHT22;2601;50.224;10.126;2023-04-24T13:36:44;16.20;95.30
5164;DHT22;2601;50.224;10.126;2023-04-24T13:39:10;16.20;95.40
5164;DHT22;2601;50.224;10.126;2023-04-24T13:41:36;16.20;95.40
5164;DHT22;2601;50.224;10.126;2023-04-24T13:44:03;16.20;95.40
5164;DHT22;2601;50.224;10.126;2023-04-24T13:46:29;16.20;95.40
5164;DHT22;2601;50.224;10.126;2023-04-24T13:48:55;16.20;95.40
5164;DHT22;2601;50.224;10.126;2023-04-24T13:51:20;16.20;95.30
5164;DHT22;2601;50.224;10.126;2023-04-24T13:53:46;16.20;95.30
5164;DHT22;2601;50.224;10.126;2023-04-24T13:56:11;16.20;95.20
5164;DHT22;2601;50.224;10.126;2023-04-24T13:58:39;16.20;95.30
5164;DHT22;2601;50.224;10.126;2023-04-24T14:01:05;16.20;95.30
5164;DHT22;2601;50.224;10.126;2023-04-24T14:03:30;16.20;95.30
5164;DHT22;2601;50.224;10.126;2023-04-24T14:05:56;16.20;95.30
5164;DHT22;2601;50.224;10.126;2023-04-24T14:08:22;16.20;95.70
5164;DHT22;2601;50.224;10.126;2023-04-24T14:10:48;16.20;96.40
5164;DHT22;2601;50.224;10.126;2023-04-24T14:13:14;16.20;96.70
5164;DHT22;2601;50.224;10.126;2023-04-24T14:15:39;16.20;96.90
5164;DHT22;2601;50.224;10.126;2023-04-24T14:18:05;16.20;97.20
5164;DHT22;2601;50.224;10.126;2023-04-24T14:20:31;16.20;97.30
5164;DHT22;2601;50.224;10.126;2023-04-24T14:22:57;16.20;97.60
5164;DHT22;2601;50.224;10.126;2023-04-24T14:25:26;16.20;97.70
5164;DHT22;2601;50.224;10.126;2023-04-24T14:27:51;16.20;97.80
5164;DHT22;2601;50.224;10.126;2023-04-24T14:30:17;16.30;97.80
5164;DHT22;2601;50.224;10.126;2023-04-24T14:32:43;16.30;97.70
5164;DHT22;2601;50.224;10.126;2023-04-24T14:35:09;16.20;97.70
5164;DHT22;2601;50.224;10.126;2023-04-24T14:37:34;16.30;97.60
5164;DHT22;2601;50.224;10.126;2023-04-24T14:40:01;16.30;97.60
5164;DHT22;2601;50.224;10.126;2023-04-24T14:42:27;16.30;97.60
5164;DHT22;2601;50.224;10.126;2023-04-24T14:44:54;16.30;97.60
5164;DHT22;2601;50.224;10.126;2023-04-24T14:47:20;16.30;97.50
5164;DHT22;2601;50.224;10.126;2023-04-24T14:49:47;16.30;97.60
5164;DHT22;2601;50.224;10.126;2023-04-24T14:52:13;16.30;97.60
5164;DHT22;2601;50.224;10.126;2023-04-24T14:54:39;16.30;97.90
5164;DHT22;2601;50.224;10.126;2023-04-24T14:57:04;16.30;97.90
5164;DHT22;2601;50.224;10.126;2023-04-24T14:59:31;16.30;98.00
5164;DHT22;2601;50.224;10.126;2023-04-24T15:01:57;16.20;98.00
5164;DHT22;2601;50.224;10.126;2023-04-24T15:04:27;16.30;98.20
5164;DHT22;2601;50.224;10.126;2023-04-24T15:06:56;16.30;98.20
5164;DHT22;2601;50.224;10.126;2023-04-24T15:09:22;16.30;98.30
5164;DHT22;2601;50.224;10.126;2023-04-24T15:11:48;16.30;98.30
5164;DHT22;2601;50.224;10.126;2023-04-24T15:14:15;16.30;98.30
5164;DHT22;2601;50.224;10.126;2023-04-24T15:16:40;16.20;98.30
5164;DHT22;2601;50.224;10.126;2023-04-24T15:19:06;16.30;98.40
5164;DHT22;2601;50.224;10.126;2023-04-24T15:21:32;16.30;98.40
5164;DHT22;2601;50.224;10.126;2023-04-24T15:23:58;16.30;98.50
5164;DHT22;2601;50.224;10.126;2023-04-24T15:26:24;16.30;98.90
5164;DHT22;2601;50.224;10.126;2023-04-24T15:28:50;16.30;98.60
5164;DHT22;2601;50.224;10.126;2023-04-24T15:31:17;16.30;98.70
5164;DHT22;2601;50.224;10.126;2023-04-24T15:33:43;16.30;98.80
5164;DHT22;2601;50.224;10.126;2023-04-24T15:36:09;16.30;98.70
5164;DHT22;2601;50.224;10.126;2023-04-24T15:38:35;16.30;98.70
5164;DHT22;2601;50.224;10.126;2023-04-24T15:41:02;16.30;98.90
5164;DHT22;2601;50.224;10.126;2023-04-24T15:43:27;16.30;98.90
5164;DHT22;2601;50.224;10.126;2023-04-24T15:45:56;16.30;99.00
5164;DHT22;2601;50.224;10.126;2023-04-24T15:48:22;16.30;99.00
5164;DHT22;2601;50.224;10.126;2023-04-24T15:50:47;16.30;99.30
5164;DHT22;2601;50.224;10.126;2023-04-24T15:53:13;16.30;99.50
5164;DHT22;2601;50.224;10.126;2023-04-24T15:55:39;16.30;99.30